createdAt,value
2022-08-03T00:00:26.673Z,16.76
2022-08-03T00:02:53.643Z,16.78
2022-08-03T00:05:20.479Z,16.77
2022-08-03T00:07:48.408Z,16.81
2022-08-03T00:10:15.291Z,16.80
2022-08-03T00:12:42.090Z,16.81
2022-08-03T00:15:11.415Z,16.84
2022-08-03T00:17:53.232Z,16.92
2022-08-03T00:20:24.236Z,16.90
2022-08-03T00:22:51.778Z,16.89
2022-08-03T00:25:18.503Z,16.88
2022-08-03T00:27:45.663Z,16.86
2022-08-03T00:30:15.261Z,16.92
2022-08-03T00:32:45.151Z,16.95
2022-08-03T00:35:27.433Z,16.98
2022-08-03T00:37:59.844Z,16.94
2022-08-03T00:40:26.725Z,16.99
2022-08-03T00:42:57.520Z,17.07
2022-08-03T00:45:26.811Z,17.13
2022-08-03T00:47:54.154Z,17.14
2022-08-03T00:50:23.073Z,17.16
2022-08-03T00:52:50.466Z,17.21
2022-08-03T00:55:17.178Z,17.23
2022-08-03T00:57:44.521Z,17.28
2022-08-03T01:00:14.001Z,17.28
2022-08-03T01:02:41.389Z,17.21
2022-08-03T01:05:09.777Z,17.22
2022-08-03T01:07:54.879Z,17.26
2022-08-03T01:10:24.492Z,17.26
2022-08-03T01:13:59.368Z,17.27
2022-08-03T01:15:57.917Z,17.28
2022-08-03T01:18:28.688Z,17.31
2022-08-03T01:20:56.942Z,17.32
2022-08-03T01:23:28.747Z,17.37
2022-08-03T01:26:11.251Z,17.41
2022-08-03T01:28:57.565Z,17.50
2022-08-03T01:31:28.376Z,17.48
2022-08-03T01:34:01.410Z,17.49
2022-08-03T01:36:32.386Z,17.51
2022-08-03T01:39:01.414Z,17.47
2022-08-03T01:41:32.312Z,17.51
2022-08-03T01:44:29.547Z,17.53
2022-08-03T01:46:50.059Z,17.56
2022-08-03T01:49:17.912Z,17.62
2022-08-03T01:52:02.966Z,17.60
2022-08-03T01:54:32.859Z,17.59
2022-08-03T01:56:59.791Z,17.57
2022-08-03T01:59:28.135Z,17.58
2022-08-03T02:02:27.920Z,17.57
2022-08-03T02:04:44.238Z,17.56
2022-08-03T02:07:11.449Z,17.52
2022-08-03T02:09:41.762Z,17.53
2022-08-03T02:12:09.535Z,17.50
2022-08-03T02:14:37.167Z,17.54
2022-08-03T02:17:04.654Z,17.53
2022-08-03T02:19:35.757Z,17.52
2022-08-03T02:22:04.906Z,17.53
2022-08-03T02:24:31.997Z,17.51
2022-08-03T02:27:00.129Z,17.51
2022-08-03T02:29:39.946Z,17.50
2022-08-03T02:32:10.416Z,17.53
2022-08-03T02:34:38.189Z,17.57
2022-08-03T02:37:07.042Z,17.49
2022-08-03T02:39:35.634Z,17.51
2022-08-03T02:42:03.202Z,17.51
2022-08-03T02:44:34.881Z,17.49
2022-08-03T02:47:07.755Z,17.56
2022-08-03T02:49:50.661Z,17.59
2022-08-03T02:52:23.547Z,17.66
2022-08-03T02:54:52.451Z,17.68
2022-08-03T02:57:20.225Z,17.67
2022-08-03T02:59:47.538Z,17.69
2022-08-03T03:02:16.793Z,17.69
2022-08-03T03:05:01.328Z,17.67
2022-08-03T03:07:33.912Z,17.72
2022-08-03T03:10:05.435Z,17.68
2022-08-03T03:12:33.331Z,17.66
2022-08-03T03:15:00.308Z,17.65
2022-08-03T03:17:27.894Z,17.66
2022-08-03T03:19:55.822Z,17.64
2022-08-03T03:22:23.295Z,17.66
2022-08-03T03:24:51.893Z,17.70
2022-08-03T03:27:18.810Z,17.72
2022-08-03T03:29:45.953Z,17.70
2022-08-03T03:32:12.652Z,17.69
2022-08-03T03:34:39.806Z,17.70
2022-08-03T03:37:10.937Z,17.73
2022-08-03T03:39:37.689Z,17.76
2022-08-03T03:42:05.130Z,17.78
2022-08-03T03:44:31.873Z,17.79
2022-08-03T03:46:58.733Z,17.78
2022-08-03T03:49:26.286Z,17.79
2022-08-03T03:51:53.990Z,17.79
2022-08-03T03:54:21.254Z,17.86
2022-08-03T03:56:48.253Z,17.83
2022-08-03T03:59:14.937Z,17.79
2022-08-03T04:01:41.906Z,17.78
2022-08-03T04:04:27.321Z,17.77
2022-08-03T04:07:23.230Z,17.76
2022-08-03T04:10:14.856Z,17.76
2022-08-03T04:12:49.993Z,17.74
2022-08-03T04:15:20.760Z,17.77
2022-08-03T04:17:50.303Z,17.72
2022-08-03T04:20:19.763Z,17.77
2022-08-03T04:22:48.174Z,17.80
2022-08-03T04:25:18.232Z,17.85
2022-08-03T04:27:46.516Z,17.84
2022-08-03T04:30:36.190Z,17.92
2022-08-03T04:33:03.072Z,17.92
2022-08-03T04:36:01.145Z,17.97
2022-08-03T04:38:20.273Z,18.04
2022-08-03T04:40:48.005Z,18.01
2022-08-03T04:43:16.769Z,18.08
2022-08-03T04:45:44.030Z,18.06
2022-08-03T04:48:10.858Z,18.02
2022-08-03T04:50:37.758Z,18.06
2022-08-03T04:53:05.830Z,18.03
2022-08-03T04:55:34.575Z,18.03
2022-08-03T04:58:04.079Z,18.01
2022-08-03T05:00:30.780Z,18.05
2022-08-03T05:02:58.328Z,18.08
2022-08-03T05:05:25.336Z,18.08
2022-08-03T05:07:52.204Z,18.11
2022-08-03T05:10:20.503Z,18.14
2022-08-03T05:12:48.196Z,18.16
2022-08-03T05:15:14.905Z,18.21
2022-08-03T05:17:41.745Z,18.23
2022-08-03T05:20:08.936Z,18.22
2022-08-03T05:22:35.842Z,18.16
2022-08-03T05:25:03.066Z,18.16
2022-08-03T05:27:29.880Z,18.14
2022-08-03T05:30:31.500Z,18.19
2022-08-03T05:32:44.689Z,18.28
2022-08-03T05:35:55.650Z,18.30
2022-08-03T05:37:58.279Z,18.38
2022-08-03T05:40:25.029Z,18.37
2022-08-03T05:42:54.680Z,18.37
2022-08-03T05:45:25.382Z,18.33
2022-08-03T05:47:57.940Z,18.31
2022-08-03T05:50:24.917Z,18.30
2022-08-03T05:52:58.811Z,18.35
2022-08-03T05:55:25.796Z,18.37
2022-08-03T05:57:55.173Z,18.36
2022-08-03T06:00:23.512Z,18.37
2022-08-03T06:02:52.481Z,18.30
2022-08-03T06:05:19.450Z,18.27
2022-08-03T06:07:46.826Z,18.33
2022-08-03T06:10:35.601Z,18.37
2022-08-03T06:13:00.581Z,18.42
2022-08-03T06:15:29.968Z,18.45
2022-08-03T06:18:01.777Z,18.46
2022-08-03T06:20:28.957Z,18.54
2022-08-03T06:23:00.455Z,18.61
2022-08-03T06:25:29.940Z,18.54
2022-08-03T06:27:58.819Z,18.65
2022-08-03T06:30:25.913Z,18.77
2022-08-03T06:32:52.683Z,18.85
2022-08-03T06:35:19.694Z,18.91
2022-08-03T06:37:47.767Z,19.00
2022-08-03T06:40:16.183Z,19.11
2022-08-03T06:42:48.911Z,19.16
2022-08-03T06:45:17.008Z,19.18
2022-08-03T06:47:44.594Z,19.26
2022-08-03T06:50:14.335Z,19.20
2022-08-03T06:52:45.437Z,19.19
2022-08-03T06:55:12.244Z,19.15
2022-08-03T06:57:38.935Z,19.13
2022-08-03T07:00:11.602Z,19.10
2022-08-03T07:02:40.243Z,19.07
2022-08-03T07:05:08.651Z,19.12
2022-08-03T07:07:37.566Z,19.13
2022-08-03T07:10:06.048Z,19.20
2022-08-03T07:12:33.950Z,19.47
2022-08-03T07:15:02.978Z,19.59
2022-08-03T07:17:34.872Z,19.76
2022-08-03T07:20:02.495Z,19.72
2022-08-03T07:22:30.509Z,19.65
2022-08-03T07:24:57.363Z,19.61
2022-08-03T07:27:24.131Z,19.77
2022-08-03T07:29:52.522Z,19.79
2022-08-03T07:32:20.429Z,19.94
2022-08-03T07:34:47.183Z,20.03
2022-08-03T07:37:15.498Z,19.99
2022-08-03T07:39:42.338Z,19.96
2022-08-03T07:42:11.014Z,19.91
2022-08-03T07:44:39.379Z,19.91
2022-08-03T07:47:06.083Z,19.82
2022-08-03T07:49:33.075Z,19.75
2022-08-03T07:52:18.666Z,20.04
2022-08-03T07:54:47.485Z,20.24
2022-08-03T07:57:14.275Z,20.21
2022-08-03T07:59:57.215Z,20.34
2022-08-03T08:02:28.192Z,20.26
2022-08-03T08:04:55.210Z,20.19
2022-08-03T08:07:21.934Z,20.22
2022-08-03T08:09:49.835Z,20.26
2022-08-03T08:12:16.892Z,20.18
2022-08-03T08:14:46.700Z,20.18
2022-08-03T08:17:13.692Z,20.18
2022-08-03T08:19:42.790Z,20.11
2022-08-03T08:22:30.202Z,19.89
2022-08-03T08:24:58.190Z,19.91
2022-08-03T08:27:24.931Z,19.97
2022-08-03T08:29:55.423Z,19.88
2022-08-03T08:32:24.794Z,19.73
2022-08-03T08:34:53.299Z,19.67
2022-08-03T08:37:20.067Z,19.60
2022-08-03T08:39:47.145Z,19.61
2022-08-03T08:42:15.542Z,19.60
2022-08-03T08:44:42.645Z,19.69
2022-08-03T08:47:09.808Z,19.86
2022-08-03T08:49:38.775Z,19.91
2022-08-03T08:52:25.219Z,19.97
2022-08-03T08:55:06.284Z,20.06
2022-08-03T08:57:42.844Z,20.20
2022-08-03T09:00:14.000Z,20.43
2022-08-03T09:02:44.788Z,20.50
2022-08-03T09:05:15.616Z,20.47
2022-08-03T09:07:45.709Z,20.57
2022-08-03T09:10:14.051Z,20.67
2022-08-03T09:12:45.142Z,20.60
2022-08-03T09:15:19.089Z,20.42
2022-08-03T09:17:50.482Z,20.45
2022-08-03T09:20:18.080Z,20.48
2022-08-03T09:23:01.604Z,20.43
2022-08-03T09:25:28.804Z,20.50
2022-08-03T09:27:56.107Z,20.55
2022-08-03T09:30:34.599Z,20.58
2022-08-03T09:33:03.680Z,20.75
2022-08-03T09:35:53.180Z,20.76
2022-08-03T09:38:26.385Z,20.96
2022-08-03T09:40:59.019Z,20.98
2022-08-03T09:43:27.861Z,21.09
2022-08-03T09:46:03.109Z,21.12
2022-08-03T09:48:30.798Z,20.92
2022-08-03T09:51:12.532Z,21.04
2022-08-03T09:53:58.808Z,21.23
2022-08-03T09:56:39.806Z,21.20
2022-08-03T09:59:07.025Z,20.96
2022-08-03T10:01:35.795Z,20.93
2022-08-03T10:04:03.372Z,21.17
2022-08-03T10:06:31.581Z,21.46
2022-08-03T10:09:10.555Z,22.27
2022-08-03T10:11:41.585Z,22.75
2022-08-03T10:14:10.468Z,23.14
2022-08-03T10:16:39.582Z,23.61
2022-08-03T10:19:07.806Z,23.93
2022-08-03T10:21:35.500Z,24.23
2022-08-03T10:24:04.678Z,24.64
2022-08-03T10:26:32.585Z,24.89
2022-08-03T10:29:01.562Z,24.72
2022-08-03T10:31:33.637Z,24.43
2022-08-03T10:34:02.278Z,24.38
2022-08-03T10:36:31.802Z,24.10
2022-08-03T10:38:59.752Z,23.68
2022-08-03T10:41:31.476Z,23.27
2022-08-03T10:44:03.907Z,22.73
2022-08-03T10:46:33.518Z,22.74
2022-08-03T10:49:00.360Z,22.61
2022-08-03T10:51:32.418Z,22.42
2022-08-03T10:54:01.583Z,22.54
2022-08-03T10:56:54.642Z,23.08
2022-08-03T10:59:40.431Z,23.27
2022-08-03T11:02:09.985Z,23.25
2022-08-03T11:04:36.794Z,23.28
2022-08-03T11:07:16.231Z,23.48
2022-08-03T11:09:44.218Z,23.59
2022-08-03T11:12:28.425Z,23.52
2022-08-03T11:15:03.330Z,23.35
2022-08-03T11:17:30.222Z,23.44
2022-08-03T11:19:58.469Z,23.42
2022-08-03T11:22:26.440Z,23.25
2022-08-03T11:24:57.595Z,22.89
2022-08-03T11:27:24.266Z,22.87
2022-08-03T11:29:54.069Z,22.66
2022-08-03T11:32:46.834Z,22.27
2022-08-03T11:35:15.978Z,22.02
2022-08-03T11:38:03.605Z,22.09
2022-08-03T11:40:37.919Z,21.87
2022-08-03T11:43:06.180Z,21.60
2022-08-03T11:45:33.611Z,21.38
2022-08-03T11:48:02.560Z,21.22
2022-08-03T11:50:36.863Z,21.20
2022-08-03T11:53:05.500Z,21.18
2022-08-03T11:55:33.668Z,21.45
2022-08-03T11:59:17.517Z,21.46
2022-08-03T12:00:49.210Z,21.44
2022-08-03T12:03:20.470Z,21.65
2022-08-03T12:05:51.658Z,21.84
2022-08-03T12:08:31.105Z,22.11
2022-08-03T12:11:00.334Z,21.92
2022-08-03T12:13:56.801Z,21.87
2022-08-03T12:16:20.244Z,21.79
2022-08-03T12:18:55.178Z,21.66
2022-08-03T12:21:24.778Z,21.73
2022-08-03T12:23:56.355Z,21.60
2022-08-03T12:26:23.564Z,21.71
2022-08-03T12:28:50.298Z,21.81
2022-08-03T12:31:17.454Z,22.05
2022-08-03T12:34:04.323Z,21.96
2022-08-03T12:36:32.306Z,21.79
2022-08-03T12:39:01.348Z,21.81
2022-08-03T12:41:33.947Z,21.68
2022-08-03T12:44:05.501Z,21.70
2022-08-03T12:46:47.192Z,21.72
2022-08-03T12:49:15.733Z,21.75
2022-08-03T12:51:42.462Z,21.75
2022-08-03T12:54:10.206Z,21.79
2022-08-03T12:56:56.761Z,21.84
2022-08-03T12:59:23.766Z,21.77
2022-08-03T13:01:55.083Z,22.04
2022-08-03T13:04:26.597Z,22.08
2022-08-03T13:07:06.465Z,22.32
2022-08-03T13:09:47.970Z,22.54
2022-08-03T13:12:14.733Z,22.66
2022-08-03T13:14:45.578Z,22.39
2022-08-03T13:17:12.363Z,22.28
2022-08-03T13:19:40.616Z,22.43
2022-08-03T13:22:11.843Z,22.71
2022-08-03T13:24:38.501Z,22.72
2022-08-03T13:28:04.598Z,22.50
2022-08-03T13:29:54.476Z,22.34
2022-08-03T13:32:21.716Z,22.41
2022-08-03T13:34:48.948Z,22.44
2022-08-03T13:37:15.797Z,22.12
2022-08-03T13:39:58.175Z,21.96
2022-08-03T13:42:31.735Z,21.90
2022-08-03T13:44:59.147Z,22.03
2022-08-03T13:47:26.781Z,22.11
2022-08-03T13:50:00.785Z,22.14
2022-08-03T13:52:35.505Z,22.02
2022-08-03T13:55:04.483Z,22.00
2022-08-03T13:58:18.927Z,21.94
2022-08-03T14:00:26.238Z,22.13
2022-08-03T14:03:02.851Z,21.98
2022-08-03T14:05:32.294Z,22.01
2022-08-03T14:08:04.185Z,22.36
2022-08-03T14:10:33.770Z,22.83
2022-08-03T14:13:00.625Z,22.75
2022-08-03T14:15:29.704Z,22.78
2022-08-03T14:17:58.603Z,22.62
2022-08-03T14:20:46.966Z,22.46
2022-08-03T14:23:17.039Z,22.57
2022-08-03T14:25:50.506Z,22.37
2022-08-03T14:28:20.882Z,22.24
2022-08-03T14:30:48.689Z,22.18
2022-08-03T14:33:15.712Z,22.16
2022-08-03T14:35:42.503Z,22.05
2022-08-03T14:38:09.279Z,21.96
2022-08-03T14:40:36.078Z,22.37
2022-08-03T14:43:02.976Z,22.51
2022-08-03T14:45:29.840Z,22.39
2022-08-03T14:50:30.174Z,22.22
2022-08-03T14:50:50.339Z,22.02
2022-08-03T14:53:20.647Z,21.82
2022-08-03T14:55:51.587Z,21.86
2022-08-03T14:58:21.193Z,21.67
2022-08-03T15:00:49.188Z,21.62
2022-08-03T15:03:20.446Z,21.88
2022-08-03T15:05:47.477Z,22.29
2022-08-03T15:08:14.233Z,22.37
2022-08-03T15:10:44.736Z,22.43
2022-08-03T15:15:39.605Z,22.46
2022-08-03T15:18:06.411Z,22.38
2022-08-03T15:20:44.401Z,22.37
2022-08-03T15:23:11.990Z,22.19
2022-08-03T15:26:02.357Z,22.23
2022-08-03T15:28:27.222Z,22.31
2022-08-03T15:30:55.355Z,22.24
2022-08-03T15:33:22.512Z,22.20
2022-08-03T15:35:49.965Z,21.80
2022-08-03T15:38:18.326Z,21.55
2022-08-03T15:40:45.152Z,21.36
2022-08-03T15:43:13.100Z,21.22
2022-08-03T15:45:40.692Z,21.32
2022-08-03T15:48:08.823Z,21.49
2022-08-03T15:50:36.859Z,21.58
2022-08-03T15:53:05.026Z,21.50
2022-08-03T15:55:33.160Z,21.45
2022-08-03T15:59:10.684Z,21.61
2022-08-03T16:00:47.776Z,21.63
2022-08-03T16:03:14.436Z,21.90
2022-08-03T16:05:41.243Z,21.99
2022-08-03T16:08:13.198Z,22.10
2022-08-03T16:10:42.767Z,21.82
2022-08-03T16:13:09.453Z,21.66
2022-08-03T16:15:39.024Z,21.72
2022-08-03T16:18:06.690Z,21.58
2022-08-03T16:20:35.130Z,21.45
2022-08-03T16:23:06.266Z,21.16
2022-08-03T16:25:42.481Z,20.85
2022-08-03T16:28:13.910Z,20.71
2022-08-03T16:30:41.821Z,20.56
2022-08-03T16:33:08.735Z,20.50
2022-08-03T16:35:35.726Z,20.52
2022-08-03T16:38:06.534Z,20.45
2022-08-03T16:40:36.408Z,20.39
2022-08-03T16:43:10.393Z,20.40
2022-08-03T16:45:46.688Z,20.36
2022-08-03T16:48:13.572Z,20.36
2022-08-03T16:50:42.340Z,20.36
2022-08-03T16:53:09.778Z,20.34
2022-08-03T16:55:48.780Z,20.40
2022-08-03T16:58:34.335Z,20.49
2022-08-03T17:01:21.687Z,20.49
2022-08-03T17:04:02.197Z,20.47
2022-08-03T17:06:34.680Z,20.44
2022-08-03T17:09:09.266Z,20.43
2022-08-03T17:11:46.861Z,20.47
2022-08-03T17:14:15.322Z,20.42
2022-08-03T17:16:52.571Z,20.45
2022-08-03T17:19:23.224Z,20.40
2022-08-03T17:22:01.443Z,20.39
2022-08-03T17:24:31.968Z,20.35
2022-08-03T17:27:09.269Z,20.29
2022-08-03T17:30:25.630Z,20.31
2022-08-03T17:32:57.634Z,20.29
2022-08-03T17:35:29.682Z,20.22
2022-08-03T17:38:05.727Z,20.19
2022-08-03T17:40:34.572Z,20.17
2022-08-03T17:44:08.195Z,20.15
2022-08-03T17:45:54.831Z,20.14
2022-08-03T17:48:25.221Z,20.16
2022-08-03T17:50:57.167Z,20.16
2022-08-03T17:53:27.363Z,20.13
2022-08-03T17:56:04.857Z,20.14
2022-08-03T17:58:55.266Z,20.22
2022-08-03T18:02:00.695Z,20.23
2022-08-03T18:04:33.591Z,20.30
2022-08-03T18:07:11.933Z,20.39
2022-08-03T18:10:06.841Z,20.43
2022-08-03T18:12:31.073Z,20.34
2022-08-03T18:15:01.123Z,20.26
2022-08-03T18:17:55.093Z,20.22
2022-08-03T18:20:34.012Z,20.16
2022-08-03T18:23:04.690Z,20.16
2022-08-03T18:25:44.966Z,20.14
2022-08-03T18:28:14.085Z,20.03
2022-08-03T18:30:54.073Z,19.98
2022-08-03T18:34:18.376Z,19.96
2022-08-03T18:36:21.720Z,19.90
2022-08-03T18:38:51.797Z,19.84
2022-08-03T18:41:32.325Z,19.79
2022-08-03T18:44:08.719Z,19.79
2022-08-03T18:47:15.940Z,19.75
2022-08-03T18:49:52.467Z,19.73
2022-08-03T18:52:29.352Z,19.73
2022-08-03T18:55:08.431Z,19.74
2022-08-03T18:57:49.350Z,19.68
2022-08-03T19:00:24.300Z,19.67
2022-08-03T19:03:05.179Z,19.63
2022-08-03T19:05:53.827Z,19.60
2022-08-03T19:08:28.796Z,19.54
2022-08-03T19:11:00.792Z,19.54
2022-08-03T19:13:36.442Z,19.50
2022-08-03T19:16:04.737Z,19.45
2022-08-03T19:18:37.613Z,19.42
2022-08-03T19:21:12.670Z,19.39
2022-08-03T19:23:45.027Z,19.37
2022-08-03T19:26:30.006Z,19.35
2022-08-03T19:28:58.428Z,19.33
2022-08-03T19:31:31.136Z,19.27
2022-08-03T19:34:02.709Z,19.27
2022-08-03T19:36:29.655Z,19.28
2022-08-03T19:38:57.006Z,19.25
2022-08-03T19:41:42.253Z,19.18
2022-08-03T19:44:19.935Z,18.85
2022-08-03T19:46:50.057Z,18.99
2022-08-03T19:49:20.034Z,19.00
2022-08-03T19:52:01.453Z,18.98
2022-08-03T19:54:56.915Z,18.95
2022-08-03T19:57:24.929Z,18.93
2022-08-03T19:59:52.690Z,18.93
2022-08-03T20:02:27.145Z,18.93
2022-08-03T20:04:59.652Z,18.89
2022-08-03T20:07:28.714Z,18.83
2022-08-03T20:12:43.712Z,18.74
2022-08-03T20:15:10.832Z,18.70
2022-08-03T20:17:56.448Z,18.68
2022-08-03T20:20:29.730Z,18.70
2022-08-03T20:22:58.119Z,18.66
2022-08-03T20:25:39.518Z,18.65
2022-08-03T20:28:21.482Z,18.64
2022-08-03T20:30:53.548Z,18.61
2022-08-03T20:33:27.915Z,18.56
2022-08-03T20:36:10.295Z,18.51
2022-08-03T20:38:43.728Z,18.50
2022-08-03T20:41:13.779Z,18.49
2022-08-03T20:43:40.997Z,18.50
2022-08-03T20:46:31.052Z,18.45
2022-08-03T20:48:55.285Z,18.44
2022-08-03T20:51:50.297Z,18.37
2022-08-03T20:54:28.839Z,18.38
2022-08-03T20:56:57.808Z,18.37
2022-08-03T20:59:30.474Z,18.40
2022-08-03T21:02:01.424Z,18.41
2022-08-03T21:04:28.786Z,18.39
2022-08-03T21:07:02.144Z,18.42
2022-08-03T21:09:40.437Z,18.41
2022-08-03T21:12:12.177Z,18.38
2022-08-03T21:13:03.563Z,18.78
2022-08-03T21:15:02.830Z,18.37
2022-08-03T21:17:40.499Z,18.32
2022-08-03T21:20:09.539Z,18.35
2022-08-03T21:22:38.074Z,18.40
2022-08-03T21:25:07.381Z,18.31
2022-08-03T21:27:34.664Z,18.37
2022-08-03T21:30:03.159Z,18.31
2022-08-03T21:32:33.028Z,18.32
2022-08-03T21:35:01.485Z,18.33
2022-08-03T21:37:28.510Z,18.38
2022-08-03T21:39:55.816Z,18.38
2022-08-03T21:42:25.762Z,18.29
2022-08-03T21:44:53.369Z,18.26
2022-08-03T21:47:21.765Z,18.25
2022-08-03T21:50:05.215Z,18.20
2022-08-03T21:52:36.294Z,18.16
2022-08-03T21:55:04.477Z,18.19
2022-08-03T21:57:31.801Z,18.16
2022-08-03T22:00:19.238Z,18.12
2022-08-03T22:02:53.020Z,18.06
2022-08-03T22:05:43.036Z,18.05
2022-08-03T22:08:13.988Z,18.04
2022-08-03T22:10:43.400Z,17.94
2022-08-03T22:13:10.459Z,17.91
2022-08-03T22:15:37.406Z,17.88
2022-08-03T22:18:04.375Z,17.87
2022-08-03T22:20:31.288Z,17.84
2022-08-03T22:23:00.691Z,17.86
2022-08-03T22:25:29.528Z,17.86
2022-08-03T22:27:58.343Z,17.83
2022-08-03T22:30:25.635Z,17.86
2022-08-03T22:32:53.689Z,17.82
2022-08-03T22:35:21.520Z,17.83
2022-08-03T22:37:52.862Z,17.85
2022-08-03T22:40:19.537Z,17.85
2022-08-03T22:42:49.377Z,17.80
2022-08-03T22:46:07.980Z,17.85
2022-08-03T22:48:07.309Z,17.79
2022-08-03T22:50:34.343Z,17.79
2022-08-03T22:53:01.387Z,17.73
2022-08-03T22:55:28.038Z,17.62
2022-08-03T22:57:56.080Z,17.58
2022-08-03T23:00:23.491Z,17.56
2022-08-03T23:02:51.312Z,17.58
2022-08-03T23:06:00.694Z,17.61
2022-08-03T23:08:09.971Z,17.68
2022-08-03T23:10:37.774Z,17.69
2022-08-03T23:13:05.439Z,17.70
2022-08-03T23:15:33.239Z,17.67
2022-08-03T23:18:03.783Z,17.65
2022-08-03T23:20:30.767Z,17.68
2022-08-03T23:23:00.375Z,17.63
2022-08-03T23:25:27.273Z,17.59
2022-08-03T23:28:05.642Z,17.53
2022-08-03T23:30:34.540Z,17.53
2022-08-03T23:33:03.069Z,17.52
2022-08-03T23:36:20.205Z,17.53
2022-08-03T23:38:36.772Z,17.50
2022-08-03T23:41:04.911Z,17.52
2022-08-03T23:43:47.649Z,17.54
2022-08-03T23:46:21.231Z,17.52
2022-08-03T23:48:47.867Z,17.48
2022-08-03T23:51:33.265Z,17.47
2022-08-03T23:54:03.415Z,17.46
2022-08-03T23:56:51.435Z,17.49
2022-08-03T23:59:30.796Z,17.45
